Terminal Aerodrome Forecast
Issued by NWS

Home | Current Version | Previous Version | Text Only | Print | Product List | Glossary On
Versions: 1 2 3 4 5 6 7 8 9 10 11 12 13 14 15
461
FTPA31 PHFO 302322
TAFHJR
TAF
PHJR 302322Z 0100/0124 12009KT P6SM FEW035 SCT050
     FM010400 06004KT P6SM FEW050
     FM012000 08011KT P6SM SCT050=

USA.gov is the U.S. government's official web portal to all federal, state and local government web resources and services.